Time,TemperatureF,DewpointF,PressureIn,WindDirection,WindDirectionDegrees,WindSpeedMPH,WindSpeedGustMPH,Humidity,HourlyPrecipIn,Conditions,Clouds,dailyrainin,SoftwareType,DateUTC
2013-07-24 00:13:00,67.1,61.0,29.94,West,269,2.0,5.0,81,0.00,,,0.00,weatherlink.com 1.10,2013-07-24 07:13:00,
2013-07-24 00:28:00,66.9,61.0,29.94,West,280,1.0,5.0,81,0.00,,,0.00,weatherlink.com 1.10,2013-07-24 07:28:00,
2013-07-24 00:43:00,66.6,61.0,29.93,WNW,292,1.0,7.0,82,0.00,,,0.00,weatherlink.com 1.10,2013-07-24 07:43:00,
2013-07-24 00:58:00,66.4,61.0,29.94,WSW,257,0.0,4.0,82,0.00,,,0.00,weatherlink.com 1.10,2013-07-24 07:58:00,
2013-07-24 01:13:00,66.2,61.0,29.94,WNW,293,0.0,4.0,83,0.00,,,0.00,weatherlink.com 1.10,2013-07-24 08:13:00,
2013-07-24 01:28:00,66.1,61.0,29.94,NW,308,1.0,4.0,83,0.00,,,0.00,weatherlink.com 1.10,2013-07-24 08:28:00,
2013-07-24 01:43:00,66.2,61.0,29.94,West,272,1.0,4.0,83,0.00,,,0.00,weatherlink.com 1.10,2013-07-24 08:43:00,
2013-07-24 01:58:00,66.1,61.0,29.94,NNW,334,3.0,3.0,83,0.00,,,0.00,weatherlink.com 1.10,2013-07-24 08:58:00,
2013-07-24 02:13:00,66.0,61.0,29.94,WNW,292,0.0,4.0,83,0.00,,,0.00,weatherlink.com 1.10,2013-07-24 09:13:00,
2013-07-24 02:28:00,66.2,61.0,29.93,WNW,287,1.0,3.0,84,0.00,,,0.00,weatherlink.com 1.10,2013-07-24 09:28:00,
2013-07-24 02:43:00,66.5,62.0,29.93,West,276,2.0,2.0,84,0.00,,,0.00,weatherlink.com 1.10,2013-07-24 09:43:00,
2013-07-24 02:58:00,66.4,61.0,29.93,WNW,293,2.0,4.0,83,0.00,,,0.00,weatherlink.com 1.10,2013-07-24 09:58:00,
2013-07-24 03:13:00,66.2,61.0,29.93,WNW,288,1.0,7.0,84,0.00,,,0.00,weatherlink.com 1.10,2013-07-24 10:13:00,
2013-07-24 03:28:00,66.1,61.0,29.93,WNW,295,0.0,5.0,84,0.00,,,0.00,weatherlink.com 1.10,2013-07-24 10:28:00,
2013-07-24 03:43:00,65.9,61.0,29.93,NNW,346,1.0,4.0,84,0.00,,,0.00,weatherlink.com 1.10,2013-07-24 10:43:00,
2013-07-24 03:58:00,65.8,61.0,29.93,WNW,302,0.0,4.0,84,0.00,,,0.00,weatherlink.com 1.10,2013-07-24 10:58:00,
2013-07-24 04:13:00,65.7,61.0,29.92,NW,312,0.0,5.0,84,0.00,,,0.00,weatherlink.com 1.10,2013-07-24 11:13:00,
2013-07-24 04:28:00,65.5,61.0,29.92,WNW,295,2.0,5.0,84,0.00,,,0.00,weatherlink.com 1.10,2013-07-24 11:28:00,
2013-07-24 04:43:00,65.4,61.0,29.92,WNW,302,1.0,4.0,84,0.00,,,0.00,weatherlink.com 1.10,2013-07-24 11:43:00,
2013-07-24 04:58:00,65.3,60.0,29.92,NW,321,1.0,3.0,84,0.00,,,0.00,weatherlink.com 1.10,2013-07-24 11:58:00,
2013-07-24 05:13:00,65.2,61.0,29.92,NW,318,0.0,2.0,85,0.00,,,0.00,weatherlink.com 1.10,2013-07-24 12:13:00,
2013-07-24 05:28:00,65.2,61.0,29.92,WNW,283,0.0,4.0,85,0.00,,,0.00,weatherlink.com 1.10,2013-07-24 12:28:00,
2013-07-24 05:43:00,65.1,61.0,29.92,NNW,329,0.0,3.0,85,0.00,,,0.00,weatherlink.com 1.10,2013-07-24 12:43:00,
2013-07-24 05:58:00,65.2,61.0,29.93,NW,326,0.0,2.0,85,0.00,,,0.00,weatherlink.com 1.10,2013-07-24 12:58:00,
2013-07-24 06:13:00,65.4,61.0,29.93,NW,308,1.0,2.0,85,0.00,,,0.00,weatherlink.com 1.10,2013-07-24 13:13:00,
2013-07-24 06:28:00,65.6,61.0,29.93,NW,308,0.0,1.0,85,0.00,,,0.00,weatherlink.com 1.10,2013-07-24 13:28:00,
2013-07-24 06:43:00,65.8,61.0,29.92,WNW,297,2.0,2.0,84,0.00,,,0.00,weatherlink.com 1.10,2013-07-24 13:43:00,
2013-07-24 06:58:00,66.0,61.0,29.93,NNW,332,0.0,1.0,85,0.00,,,0.00,weatherlink.com 1.10,2013-07-24 13:58:00,
2013-07-24 07:13:00,66.1,61.0,29.93,West,265,1.0,3.0,84,0.00,,,0.00,weatherlink.com 1.10,2013-07-24 14:13:00,
2013-07-24 07:28:00,66.2,61.0,29.93,West,274,4.0,5.0,84,0.00,,,0.00,weatherlink.com 1.10,2013-07-24 14:28:00,
2013-07-24 07:43:00,66.4,62.0,29.93,NE,35,1.0,3.0,84,0.00,,,0.00,weatherlink.com 1.10,2013-07-24 14:43:00,
2013-07-24 07:58:00,66.6,62.0,29.93,NNW,333,0.0,2.0,84,0.00,,,0.00,weatherlink.com 1.10,2013-07-24 14:58:00,
2013-07-24 08:13:00,67.1,62.0,29.93,West,279,1.0,2.0,84,0.00,,,0.00,weatherlink.com 1.10,2013-07-24 15:13:00,
2013-07-24 08:28:00,67.2,62.0,29.93,WNW,292,3.0,3.0,83,0.00,,,0.00,weatherlink.com 1.10,2013-07-24 15:28:00,
2013-07-24 08:43:00,67.5,62.0,29.93,WNW,290,0.0,3.0,82,0.00,,,0.00,weatherlink.com 1.10,2013-07-24 15:43:00,
2013-07-24 08:58:00,68.1,62.0,29.93,West,263,2.0,3.0,81,0.00,,,0.00,weatherlink.com 1.10,2013-07-24 15:58:00,
2013-07-24 09:14:00,68.6,62.0,29.93,West,281,1.0,4.0,80,0.00,,,0.00,weatherlink.com 1.10,2013-07-24 16:14:00,
2013-07-24 09:29:00,69.0,62.0,29.93,WNW,293,2.0,4.0,79,0.00,,,0.00,weatherlink.com 1.10,2013-07-24 16:29:00,
2013-07-24 09:44:00,70.2,63.0,29.93,WSW,254,1.0,5.0,77,0.00,,,0.00,weatherlink.com 1.10,2013-07-24 16:44:00,
2013-07-24 09:59:00,71.7,63.0,29.93,West,265,3.0,4.0,74,0.00,,,0.00,weatherlink.com 1.10,2013-07-24 16:59:00,
2013-07-24 10:14:00,73.8,63.0,29.93,West,259,1.0,3.0,70,0.00,,,0.00,weatherlink.com 1.10,2013-07-24 17:14:00,
2013-07-24 10:29:00,74.4,63.0,29.93,WSW,245,1.0,3.0,68,0.00,,,0.00,weatherlink.com 1.10,2013-07-24 17:29:00,
2013-07-24 10:44:00,75.9,63.0,29.93,SW,215,1.0,5.0,65,0.00,,,0.00,weatherlink.com 1.10,2013-07-24 17:44:00,
2013-07-24 10:59:00,76.0,63.0,29.93,WSW,245,2.0,6.0,65,0.00,,,0.00,weatherlink.com 1.10,2013-07-24 17:59:00,
2013-07-24 11:14:00,76.3,64.0,29.92,SE,137,5.0,7.0,65,0.00,,,0.00,weatherlink.com 1.10,2013-07-24 18:14:00,
2013-07-24 11:29:00,77.5,63.0,29.92,WSW,245,2.0,7.0,62,0.00,,,0.00,weatherlink.com 1.10,2013-07-24 18:29:00,
2013-07-24 11:44:00,78.4,64.0,29.91,SW,236,2.0,6.0,62,0.00,,,0.00,weatherlink.com 1.10,2013-07-24 18:44:00,
2013-07-24 11:59:00,79.2,64.0,29.91,SSE,155,5.0,7.0,60,0.00,,,0.00,weatherlink.com 1.10,2013-07-24 18:59:00,
2013-07-24 12:14:00,79.6,63.0,29.91,SW,217,1.0,9.0,58,0.00,,,0.00,weatherlink.com 1.10,2013-07-24 19:14:00,
2013-07-24 12:29:00,80.2,63.0,29.91,WSW,238,4.0,6.0,57,0.00,,,0.00,weatherlink.com 1.10,2013-07-24 19:29:00,
2013-07-24 12:44:00,81.7,63.0,29.91,West,263,7.0,8.0,54,0.00,,,0.00,weatherlink.com 1.10,2013-07-24 19:44:00,
2013-07-24 12:59:00,81.3,63.0,29.90,WNW,292,2.0,8.0,54,0.00,,,0.00,weatherlink.com 1.10,2013-07-24 19:59:00,
2013-07-24 13:14:00,80.4,63.0,29.90,WNW,292,3.0,11.0,55,0.00,,,0.00,weatherlink.com 1.10,2013-07-24 20:14:00,
2013-07-24 13:29:00,80.5,63.0,29.89,WNW,287,3.0,9.0,56,0.00,,,0.00,weatherlink.com 1.10,2013-07-24 20:29:00,
2013-07-24 13:44:00,79.5,62.0,29.89,SSW,213,4.0,11.0,56,0.00,,,0.00,weatherlink.com 1.10,2013-07-24 20:44:00,
2013-07-24 13:59:00,79.5,62.0,29.89,West,276,2.0,8.0,56,0.00,,,0.00,weatherlink.com 1.10,2013-07-24 20:59:00,
2013-07-24 14:14:00,79.0,63.0,29.89,WSW,243,3.0,12.0,58,0.00,,,0.00,weatherlink.com 1.10,2013-07-24 21:14:00,
2013-07-24 14:29:00,80.0,62.0,29.89,WSW,257,4.0,10.0,55,0.00,,,0.00,weatherlink.com 1.10,2013-07-24 21:29:00,
2013-07-24 14:44:00,80.3,63.0,29.89,WNW,302,5.0,9.0,56,0.00,,,0.00,weatherlink.com 1.10,2013-07-24 21:44:00,
2013-07-24 14:59:00,80.4,62.0,29.88,West,269,5.0,10.0,54,0.00,,,0.00,weatherlink.com 1.10,2013-07-24 21:59:00,
2013-07-24 15:14:00,80.5,63.0,29.88,West,277,2.0,7.0,56,0.00,,,0.00,weatherlink.com 1.10,2013-07-24 22:14:00,
2013-07-24 15:29:00,80.6,63.0,29.88,WNW,288,8.0,10.0,55,0.00,,,0.00,weatherlink.com 1.10,2013-07-24 22:29:00,
2013-07-24 15:44:00,80.1,62.0,29.88,WNW,297,6.0,7.0,55,0.00,,,0.00,weatherlink.com 1.10,2013-07-24 22:44:00,
2013-07-24 15:59:00,79.8,63.0,29.87,NW,319,1.0,7.0,56,0.00,,,0.00,weatherlink.com 1.10,2013-07-24 22:59:00,
2013-07-24 16:14:00,80.1,62.0,29.87,West,269,2.0,10.0,55,0.00,,,0.00,weatherlink.com 1.10,2013-07-24 23:14:00,
2013-07-24 16:29:00,79.8,63.0,29.87,WNW,290,6.0,8.0,56,0.00,,,0.00,weatherlink.com 1.10,2013-07-24 23:29:00,
2013-07-24 16:44:00,79.3,62.0,29.86,WSW,257,7.0,9.0,56,0.00,,,0.00,weatherlink.com 1.10,2013-07-24 23:44:00,
2013-07-24 16:59:00,78.1,62.0,29.86,WSW,258,6.0,10.0,58,0.00,,,0.00,weatherlink.com 1.10,2013-07-24 23:59:00,
2013-07-24 17:14:00,77.4,62.0,29.86,WSW,247,4.0,8.0,60,0.00,,,0.00,weatherlink.com 1.10,2013-07-25 00:14:00,
2013-07-24 17:29:00,77.0,62.0,29.86,West,276,2.0,9.0,61,0.00,,,0.00,weatherlink.com 1.10,2013-07-25 00:29:00,
2013-07-24 17:44:00,76.8,62.0,29.86,WSW,257,4.0,7.0,61,0.00,,,0.00,weatherlink.com 1.10,2013-07-25 00:44:00,
2013-07-24 17:59:00,76.1,62.0,29.86,West,281,1.0,8.0,61,0.00,,,0.00,weatherlink.com 1.10,2013-07-25 00:59:00,
2013-07-24 18:15:00,76.0,62.0,29.86,West,276,1.0,7.0,62,0.00,,,0.00,weatherlink.com 1.10,2013-07-25 01:15:00,
2013-07-24 18:30:00,75.4,61.0,29.86,NW,309,4.0,7.0,62,0.00,,,0.00,weatherlink.com 1.10,2013-07-25 01:30:00,
2013-07-24 18:45:00,74.3,62.0,29.86,WNW,300,4.0,8.0,65,0.00,,,0.00,weatherlink.com 1.10,2013-07-25 01:45:00,
2013-07-24 19:00:00,74.1,62.0,29.86,NW,318,5.0,7.0,66,0.00,,,0.00,weatherlink.com 1.10,2013-07-25 02:00:00,
2013-07-24 19:15:00,72.6,61.0,29.87,West,264,5.0,9.0,68,0.00,,,0.00,weatherlink.com 1.10,2013-07-25 02:15:00,
2013-07-24 19:30:00,72.0,61.0,29.87,West,269,3.0,6.0,68,0.00,,,0.00,weatherlink.com 1.10,2013-07-25 02:30:00,
2013-07-24 19:45:00,70.6,61.0,29.88,WNW,285,1.0,6.0,71,0.00,,,0.00,weatherlink.com 1.10,2013-07-25 02:45:00,
2013-07-24 20:00:00,69.7,61.0,29.88,WNW,289,0.0,5.0,73,0.00,,,0.00,weatherlink.com 1.10,2013-07-25 03:00:00,
2013-07-24 20:15:00,69.1,61.0,29.88,West,259,0.0,4.0,75,0.00,,,0.00,weatherlink.com 1.10,2013-07-25 03:15:00,
2013-07-24 20:30:00,68.7,61.0,29.88,WNW,295,4.0,5.0,75,0.00,,,0.00,weatherlink.com 1.10,2013-07-25 03:30:00,
2013-07-24 20:45:00,68.4,61.0,29.89,WNW,290,1.0,5.0,76,0.00,,,0.00,weatherlink.com 1.10,2013-07-25 03:45:00,
2013-07-24 21:00:00,67.9,60.0,29.89,NW,312,3.0,6.0,76,0.00,,,0.00,weatherlink.com 1.10,2013-07-25 04:00:00,
2013-07-24 21:15:00,67.4,60.0,29.90,West,262,1.0,5.0,77,0.00,,,0.00,weatherlink.com 1.10,2013-07-25 04:15:00,
2013-07-24 21:30:00,67.0,60.0,29.90,WNW,296,1.0,5.0,78,0.00,,,0.00,weatherlink.com 1.10,2013-07-25 04:30:00,
2013-07-24 21:45:00,66.8,60.0,29.90,WNW,283,1.0,4.0,79,0.00,,,0.00,weatherlink.com 1.10,2013-07-25 04:45:00,
2013-07-24 22:00:00,66.6,60.0,29.90,WSW,249,0.0,4.0,79,0.00,,,0.00,weatherlink.com 1.10,2013-07-25 05:00:00,
2013-07-24 22:15:00,66.5,60.0,29.91,NW,305,1.0,4.0,80,0.00,,,0.00,weatherlink.com 1.10,2013-07-25 05:15:00,
2013-07-24 22:30:00,66.4,60.0,29.90,West,266,2.0,4.0,80,0.00,,,0.00,weatherlink.com 1.10,2013-07-25 05:30:00,
2013-07-24 22:45:00,66.2,60.0,29.90,WNW,297,2.0,3.0,81,0.00,,,0.00,weatherlink.com 1.10,2013-07-25 05:45:00,
2013-07-24 23:00:00,66.1,60.0,29.91,WNW,301,1.0,2.0,81,0.00,,,0.00,weatherlink.com 1.10,2013-07-25 06:00:00,
2013-07-24 23:15:00,66.0,60.0,29.91,NNW,331,2.0,4.0,81,0.00,,,0.00,weatherlink.com 1.10,2013-07-25 06:15:00,
2013-07-24 23:30:00,66.1,60.0,29.90,WNW,285,0.0,3.0,81,0.00,,,0.00,weatherlink.com 1.10,2013-07-25 06:30:00,
2013-07-24 23:45:00,65.9,60.0,29.91,WNW,292,0.0,2.0,81,0.00,,,0.00,weatherlink.com 1.10,2013-07-25 06:45:00,